Greater Kankakee Airport
KIKK : now visible

Airfield :











YOU CAN JOIN US ON...

 
LOGIN :

Register | Disclaimer

   EN    FR    IT 

 









Legend :    VFR   Marginal VFR   IFR   Intensive IFR   Very Intensive IFR
Visi :
Ceiling :
>= 8 km
>= 3000ft
5 to 8 km
1000 to 3000 ft
1500m to 5 km
500 to 1000 ft
800 to 1500m
200 to 500 ft
< 800m
< 200 ft
Symbols :   Thunderstorms  Fog  Heavy snow  Heavy precipitations  Wind > 20 kt






- Airport Elevation : 630 ft


KIKK - Greater Kankakee

CURRENT METAR :
  • 241055Z AUTO 34007KT 10SM OVC030 02/00 A3029 RMK AO2

EXPIRED METARs :
  • 241035Z AUTO 34008KT 10SM OVC030 03/00 A3029 RMK AO2
  • 241016Z AUTO 35007KT 10SM OVC030 03/00 A3029 RMK AO2
  • 240956Z AUTO 35008KT 10SM OVC030 03/00 A3028 RMK AO2
  • 240935Z AUTO 35008KT 10SM OVC030 03/00 A3028 RMK AO2
  • 240915Z AUTO 34007KT 10SM BKN030 03/M01 A3028 RMK AO2
  • 240855Z AUTO 35007KT 10SM BKN030 03/M01 A3028 RMK AO2
  • 240836Z AUTO 36010KT 10SM OVC030 03/M01 A3027 RMK AO2
  • 240815Z AUTO 35008KT 10SM OVC030 03/M01 A3027 RMK AO2

TAF N/A
KZAU FIR / North America



MET'MAP, your aeronautical weather chart ! - Copyright ORBIFLY December 2007 - Disclaimer

ORBIFLY MET'MAP TEAM :

Programming & Development : Alexandra Zaïnal
Concept & original design : Baudouin d'Aumeries
Assistance for programming : Marc-Olivier Méhu
Technical & hardware support : Manuel Goepfert

Contact : metmap@orbifly.com




SOURCES & CREDITS :

   NOAA       Earth
Advisory